createdAt,value
2023-01-18T00:00:16.641Z,34.6
2023-01-18T00:05:16.564Z,34.5
2023-01-18T00:10:16.535Z,34.5
2023-01-18T00:15:16.503Z,34.4
2023-01-18T00:20:16.452Z,34.4
2023-01-18T00:25:16.571Z,34.7
2023-01-18T00:30:16.651Z,34.6
2023-01-18T00:35:16.547Z,34.6
2023-01-18T00:40:16.526Z,34.8
2023-01-18T00:45:16.535Z,34.8
2023-01-18T00:50:16.733Z,35.1
2023-01-18T00:55:16.517Z,35.1
2023-01-18T01:00:16.621Z,35.4
2023-01-18T01:05:16.563Z,35.4
2023-01-18T01:10:16.616Z,35.5
2023-01-18T01:15:16.591Z,35.5
2023-01-18T01:20:16.751Z,35.4
2023-01-18T01:25:16.588Z,35.3
2023-01-18T01:30:16.663Z,35.4
2023-01-18T01:35:16.666Z,35.7
2023-01-18T01:40:16.817Z,35.8
2023-01-18T01:45:16.808Z,35.8
2023-01-18T01:50:16.769Z,35.8
2023-01-18T01:55:16.661Z,35.8
2023-01-18T02:00:16.695Z,35.5
2023-01-18T02:05:16.764Z,35.6
2023-01-18T02:10:16.748Z,35.3
2023-01-18T02:15:18.599Z,35.3
2023-01-18T02:20:16.778Z,35.3
2023-01-18T02:25:16.727Z,35.0
2023-01-18T02:30:16.747Z,34.9
2023-01-18T02:35:16.879Z,34.9
2023-01-18T02:40:16.907Z,34.5
2023-01-18T02:45:16.914Z,34.5
2023-01-18T02:50:16.823Z,34.1
2023-01-18T02:55:16.913Z,33.8
2023-01-18T03:00:16.939Z,33.5
2023-01-18T03:05:17.055Z,33.4
2023-01-18T03:10:16.895Z,33.1
2023-01-18T03:15:16.798Z,33.4
2023-01-18T03:20:16.909Z,33.4
2023-01-18T03:25:16.907Z,33.0
2023-01-18T03:30:16.971Z,32.9
2023-01-18T03:35:16.961Z,32.9
2023-01-18T03:40:16.939Z,32.9
2023-01-18T03:45:16.943Z,32.9
2023-01-18T03:50:16.938Z,32.9
2023-01-18T03:55:16.964Z,32.8
2023-01-18T04:00:16.955Z,32.8
2023-01-18T04:05:17.117Z,32.5
2023-01-18T04:10:16.960Z,32.5
2023-01-18T04:15:16.958Z,32.4
2023-01-18T04:20:17.013Z,32.3
2023-01-18T04:25:17.051Z,32.6
2023-01-18T04:30:17.039Z,32.4
2023-01-18T04:35:17.065Z,32.1
2023-01-18T04:40:17.105Z,32.2
2023-01-18T04:45:17.028Z,32.3
2023-01-18T04:50:17.153Z,32.0
2023-01-18T04:55:17.060Z,32.1
2023-01-18T05:00:16.127Z,32.0
2023-01-18T05:05:16.132Z,32.0
2023-01-18T05:10:16.151Z,32.1
2023-01-18T05:15:16.198Z,32.1
2023-01-18T05:20:16.120Z,32.1
2023-01-18T05:25:16.259Z,32.0
2023-01-18T05:30:16.187Z,31.7
2023-01-18T05:35:16.138Z,31.8
2023-01-18T05:40:16.169Z,31.8
2023-01-18T05:45:16.379Z,32.1
2023-01-18T05:50:16.356Z,32.0
2023-01-18T05:55:16.205Z,32.0
2023-01-18T06:00:16.258Z,31.9
2023-01-18T06:05:16.564Z,31.8
2023-01-18T06:10:16.248Z,31.8
2023-01-18T06:15:16.240Z,31.5
2023-01-18T06:20:16.362Z,31.5
2023-01-18T06:25:16.327Z,31.8
2023-01-18T06:30:16.437Z,31.5
2023-01-18T06:35:16.337Z,31.5
2023-01-18T06:40:16.365Z,31.9
2023-01-18T06:45:16.593Z,31.6
2023-01-18T06:50:16.304Z,31.9
2023-01-18T06:55:16.529Z,31.6
2023-01-18T07:00:16.423Z,31.9
2023-01-18T07:05:16.386Z,31.9
2023-01-18T07:10:16.943Z,31.9
2023-01-18T07:15:21.556Z,31.9
2023-01-18T07:20:16.472Z,31.9
2023-01-18T07:25:16.485Z,31.9
2023-01-18T07:30:16.679Z,32.3
2023-01-18T07:35:16.492Z,32.2
2023-01-18T07:40:16.475Z,32.5
2023-01-18T07:45:16.485Z,32.4
2023-01-18T07:50:16.599Z,32.6
2023-01-18T07:55:16.397Z,32.6
2023-01-18T08:00:16.595Z,32.5
2023-01-18T08:05:16.511Z,32.5
2023-01-18T08:10:16.481Z,32.4
2023-01-18T08:15:16.543Z,32.4
2023-01-18T08:20:16.651Z,32.7
2023-01-18T08:25:16.559Z,32.6
2023-01-18T08:30:16.643Z,32.5
2023-01-18T08:35:16.638Z,32.4
2023-01-18T08:40:16.780Z,32.4
2023-01-18T08:45:16.672Z,32.4
2023-01-18T08:50:16.628Z,32.8
2023-01-18T08:55:16.571Z,32.9
2023-01-18T09:00:16.805Z,33.0
2023-01-18T09:05:16.780Z,33.0
2023-01-18T09:10:16.617Z,33.0
2023-01-18T09:15:16.629Z,33.2
2023-01-18T09:20:18.895Z,33.3
2023-01-18T09:25:16.690Z,33.3
2023-01-18T09:30:16.629Z,33.8
2023-01-18T09:35:16.696Z,33.8
2023-01-18T09:40:16.784Z,33.9
2023-01-18T09:45:17.655Z,33.9
2023-01-18T09:50:16.882Z,33.9
2023-01-18T09:55:16.714Z,34.0
2023-01-18T10:00:16.869Z,33.9
2023-01-18T10:05:16.975Z,33.9
2023-01-18T10:10:16.893Z,33.8
2023-01-18T10:15:16.908Z,33.7
2023-01-18T10:20:16.950Z,33.6
2023-01-18T10:25:16.852Z,33.8
2023-01-18T10:30:16.856Z,33.8
2023-01-18T10:35:16.931Z,33.7
2023-01-18T10:40:16.891Z,34.0
2023-01-18T10:45:16.820Z,34.0
2023-01-18T10:50:17.001Z,34.0
2023-01-18T10:55:17.040Z,34.0
2023-01-18T11:00:16.938Z,33.8
2023-01-18T11:05:16.978Z,33.6
2023-01-18T11:10:16.941Z,33.2
2023-01-18T11:15:17.039Z,33.2
2023-01-18T11:20:16.993Z,33.4
2023-01-18T11:25:16.950Z,33.4
2023-01-18T11:30:17.066Z,33.3
2023-01-18T11:35:17.014Z,33.6
2023-01-18T11:40:17.096Z,33.8
2023-01-18T11:45:17.018Z,33.9
2023-01-18T11:50:22.279Z,33.9
2023-01-18T11:55:16.942Z,33.7
2023-01-18T12:00:17.120Z,33.9
2023-01-18T12:05:17.194Z,33.9
2023-01-18T12:10:16.996Z,34.0
2023-01-18T12:15:17.007Z,34.1
2023-01-18T12:20:17.086Z,34.3
2023-01-18T12:25:17.227Z,34.4
2023-01-18T12:30:17.135Z,34.6
2023-01-18T12:35:23.978Z,35.4
2023-01-18T12:40:17.416Z,35.8
2023-01-18T12:45:17.159Z,35.9
2023-01-18T12:50:17.316Z,36.1
2023-01-18T12:55:17.152Z,36.2
2023-01-18T13:00:17.153Z,36.4
2023-01-18T13:05:17.126Z,36.7
2023-01-18T13:10:17.258Z,36.6
2023-01-18T13:15:17.195Z,36.7
2023-01-18T13:20:17.212Z,36.9
2023-01-18T13:25:17.171Z,37.1
2023-01-18T13:30:17.314Z,36.9
2023-01-18T13:35:22.044Z,37.0
2023-01-18T13:40:17.278Z,37.0
2023-01-18T13:45:17.567Z,37.1
2023-01-18T13:50:17.353Z,37.3
2023-01-18T13:55:17.215Z,37.3
2023-01-18T14:00:17.308Z,37.4
2023-01-18T14:05:17.311Z,37.6
2023-01-18T14:10:17.397Z,37.7
2023-01-18T14:15:17.677Z,37.8
2023-01-18T14:20:17.307Z,37.8
2023-01-18T14:25:17.374Z,38.2
2023-01-18T14:30:17.318Z,38.3
2023-01-18T14:35:17.396Z,38.3
2023-01-18T14:40:15.459Z,38.5
2023-01-18T14:45:15.536Z,38.6
2023-01-18T14:50:15.371Z,38.7
2023-01-18T14:55:15.483Z,39.2
2023-01-18T15:00:15.517Z,39.3
2023-01-18T15:05:15.570Z,39.3
2023-01-18T15:10:15.472Z,39.4
2023-01-18T15:15:15.525Z,39.6
2023-01-18T15:20:15.535Z,39.7
2023-01-18T15:25:15.539Z,39.7
2023-01-18T15:30:15.492Z,39.8
2023-01-18T15:35:15.579Z,39.9
2023-01-18T15:40:15.492Z,39.8
2023-01-18T15:45:15.563Z,39.8
2023-01-18T15:50:15.584Z,39.9
2023-01-18T15:55:15.689Z,40.0
2023-01-18T16:00:15.759Z,40.2
2023-01-18T16:05:15.621Z,40.5
2023-01-18T16:10:15.612Z,40.7
2023-01-18T16:15:15.676Z,40.7
2023-01-18T16:20:15.604Z,40.9
2023-01-18T16:25:15.556Z,41.0
2023-01-18T16:30:15.687Z,41.1
2023-01-18T16:35:15.783Z,41.2
2023-01-18T16:40:15.765Z,40.9
2023-01-18T16:45:15.662Z,41.1
2023-01-18T16:50:15.696Z,41.2
2023-01-18T16:55:15.817Z,41.1
2023-01-18T17:00:15.693Z,41.3
2023-01-18T17:05:15.809Z,41.1
2023-01-18T17:10:15.738Z,41.2
2023-01-18T17:15:15.709Z,41.1
2023-01-18T17:20:15.944Z,41.1
2023-01-18T17:25:15.848Z,40.8
2023-01-18T17:30:15.814Z,40.9
2023-01-18T17:35:15.761Z,40.7
2023-01-18T17:40:23.557Z,40.3
2023-01-18T17:45:15.888Z,40.6
2023-01-18T17:50:15.778Z,40.6
2023-01-18T17:55:17.861Z,41.3
2023-01-18T18:00:15.888Z,41.3
2023-01-18T18:05:15.865Z,41.4
2023-01-18T18:10:15.898Z,41.6
2023-01-18T18:15:15.927Z,41.2
2023-01-18T18:20:15.949Z,41.2
2023-01-18T18:25:15.915Z,41.2
2023-01-18T18:30:15.985Z,40.8
2023-01-18T18:35:25.765Z,40.5
2023-01-18T18:40:15.878Z,40.9
2023-01-18T18:45:15.957Z,40.8
2023-01-18T18:50:15.932Z,40.9
2023-01-18T18:55:16.016Z,41.0
2023-01-18T19:00:16.060Z,40.9
2023-01-18T19:05:15.948Z,40.8
2023-01-18T19:10:16.095Z,40.9
2023-01-18T19:15:16.033Z,40.7
2023-01-18T19:20:16.002Z,40.6
2023-01-18T19:25:16.003Z,41.1
2023-01-18T19:30:16.091Z,40.9
2023-01-18T19:35:16.066Z,40.3
2023-01-18T19:40:16.151Z,40.1
2023-01-18T19:45:23.164Z,40.0
2023-01-18T19:50:16.075Z,40.1
2023-01-18T19:55:16.088Z,40.0
2023-01-18T20:00:16.122Z,39.7
2023-01-18T20:05:16.339Z,39.7
2023-01-18T20:10:16.081Z,39.9
2023-01-18T20:15:16.109Z,39.6
2023-01-18T20:20:24.213Z,39.7
2023-01-18T20:25:16.095Z,39.5
2023-01-18T20:30:16.120Z,39.3
2023-01-18T20:35:16.208Z,39.3
2023-01-18T20:40:16.379Z,39.5
2023-01-18T20:45:16.330Z,39.2
2023-01-18T20:50:16.291Z,39.1
2023-01-18T20:55:16.212Z,39.3
2023-01-18T21:00:16.262Z,39.1
2023-01-18T21:05:16.296Z,39.3
2023-01-18T21:10:16.949Z,39.3
2023-01-18T21:15:16.217Z,39.2
2023-01-18T21:20:16.282Z,38.9
2023-01-18T21:25:16.351Z,38.9
2023-01-18T21:30:16.299Z,38.5
2023-01-18T21:35:16.332Z,38.4
2023-01-18T21:40:16.377Z,38.4
2023-01-18T21:45:16.400Z,38.5
2023-01-18T21:50:18.065Z,38.5
2023-01-18T21:55:16.432Z,38.2
2023-01-18T22:00:16.437Z,38.3
2023-01-18T22:05:16.334Z,38.4
2023-01-18T22:10:16.427Z,38.2
2023-01-18T22:15:16.335Z,38.1
2023-01-18T22:20:16.363Z,38.2
2023-01-18T22:25:16.592Z,38.1
2023-01-18T22:30:16.420Z,37.9
2023-01-18T22:35:16.439Z,37.8
2023-01-18T22:40:16.543Z,37.8
2023-01-18T22:45:16.437Z,37.8
2023-01-18T22:50:16.445Z,37.7
2023-01-18T22:55:16.820Z,37.6
2023-01-18T23:00:16.690Z,37.4
2023-01-18T23:05:16.530Z,37.6
2023-01-18T23:10:16.601Z,37.4
2023-01-18T23:15:16.508Z,37.5
2023-01-18T23:20:16.608Z,37.5
2023-01-18T23:25:16.557Z,37.5
2023-01-18T23:30:16.685Z,37.3
2023-01-18T23:35:16.718Z,37.3
2023-01-18T23:40:16.590Z,37.3
2023-01-18T23:45:16.656Z,37.2
2023-01-18T23:50:16.643Z,37.1
2023-01-18T23:55:16.533Z,37.1
